Strona główna
METAR-TAF:

METAR-TAF

Lotnisko :

Dijon, Francja

Szerokość geograficzna: 47-16N, Długość geograficzna: 005-05E, wysokość: 222 m

Aktualna obserwacja pogody

Raport powstał 26 minut temu, godzina 06:00 UTC
Wiatr 6 kt od południe
Temperatura 6°C
Wilgotność 93%
Ciśnienie 1024 hPa
Widzialność 10 km lub więcej
Zachmurzenie całkowite na wysokości 4500 ft

METAR: LFSD 200600Z AUTO 19006KT 9999 OVC045 06/05 Q1024

czas: 07:26 (06:26 UTC)


TAF: brakujący

Obserwacja i prognoza pogody dla ponad 4000 lotnisk (raport METAR i TAF).

Dostępne stacje oznaczono żółtymi i czerwonymi punktami na mapie.

Najedź kursorem aby zobaczyć nazwę stacji.

Kliknij aby zobaczyć obserwacje i prognozy pogody.

Aby zmienić mapę: kliknij na zielony przycisk z czarnym krzyżykiem, aby powiększyć; na zielony przycisk z myślnikiem, aby pomniejszyć; na zielone strzałki, aby przejść do map sąsiednich.


METAR-TAF: